Time;durP1;ratioP1;P1;durP2;ratioP2;P2;SDS_P1;SDS_P2;PMS_P1;PMS_P2;Temp;Humidity;BMP_temperature;BMP_pressure;BME280_temperature;BME280_humidity;BME280_pressure;Samples;Min_cycle;Max_cycle;Signal;HPM_P1;HPM_P2
2023/09/11 00:00:25;;;;;;;12.75;9.23;;;24.80;51.30;;;;;;20557;6871;118053;-76
2023/09/11 00:02:51;;;;;;;9.97;9.10;;;24.60;51.40;;;;;;20548;6871;117410;-74
2023/09/11 00:05:17;;;;;;;9.23;8.47;;;24.30;51.80;;;;;;20554;6872;119858;-74
2023/09/11 00:07:42;;;;;;;10.43;9.43;;;24.00;52.30;;;;;;20345;6872;278204;-75
2023/09/11 00:10:08;;;;;;;10.40;9.70;;;24.10;52.30;;;;;;20334;6872;309496;-75
2023/09/11 00:12:34;;;;;;;10.10;9.37;;;24.40;51.90;;;;;;20348;6872;278663;-75
2023/09/11 00:15:01;;;;;;;9.40;8.80;;;24.50;51.70;;;;;;20565;6872;117717;-74
2023/09/11 00:17:27;;;;;;;8.93;8.23;;;24.40;51.60;;;;;;20566;6872;117988;-79
2023/09/11 00:19:52;;;;;;;9.70;9.00;;;24.10;52.20;;;;;;20562;6872;117542;-79
2023/09/11 00:22:18;;;;;;;9.07;8.37;;;23.80;52.60;;;;;;20437;6872;124400;-75
2023/09/11 00:24:43;;;;;;;10.30;9.48;;;23.60;53.00;;;;;;20347;6872;308108;-75
2023/09/11 00:27:10;;;;;;;10.40;9.60;;;23.80;53.20;;;;;;20350;6872;314827;-74
2023/09/11 00:29:37;;;;;;;9.37;8.77;;;24.00;52.30;;;;;;20560;6872;118045;-75
2023/09/11 00:32:04;;;;;;;9.00;8.40;;;24.00;52.30;;;;;;20539;6872;117347;-75
2023/09/11 00:34:29;;;;;;;9.63;8.87;;;23.80;52.70;;;;;;20566;6872;118585;-74
2023/09/11 00:36:55;;;;;;;9.23;8.57;;;23.50;53.00;;;;;;20568;6872;117337;-75
2023/09/11 00:39:21;;;;;;;9.90;9.00;;;23.40;53.40;;;;;;20565;6872;117268;-76
2023/09/11 00:41:46;;;;;;;9.00;8.40;;;23.20;53.50;;;;;;20571;6872;118202;-75
2023/09/11 00:44:12;;;;;;;10.27;9.48;;;23.10;53.80;;;;;;20344;6872;279107;-75
2023/09/11 00:46:39;;;;;;;10.60;9.80;;;23.40;53.70;;;;;;20294;6872;317912;-75
2023/09/11 00:49:06;;;;;;;10.13;9.33;;;23.80;52.80;;;;;;20328;6872;309552;-74
2023/09/11 00:51:30;;;;;;;9.73;9.07;;;24.20;52.20;;;;;;20323;6872;279098;-75
2023/09/11 00:53:56;;;;;;;9.73;8.93;;;24.20;51.80;;;;;;20522;6872;121289;-75
2023/09/11 00:56:22;;;;;;;9.47;8.77;;;24.20;51.80;;;;;;20544;6872;117502;-75
2023/09/11 00:58:47;;;;;;;10.53;9.63;;;23.90;52.40;;;;;;20327;6872;308597;-75
2023/09/11 01:01:13;;;;;;;9.57;8.87;;;23.90;52.10;;;;;;20539;6872;117975;-73
2023/09/11 01:03:39;;;;;;;9.77;9.00;;;23.80;52.40;;;;;;20327;6872;279867;-75
2023/09/11 01:06:04;;;;;;;10.18;9.27;;;23.90;52.60;;;;;;20318;6872;316393;-73
2023/09/11 01:08:30;;;;;;;10.40;9.70;;;24.10;52.30;;;;;;20334;6872;278632;-75
2023/09/11 01:10:56;;;;;;;11.07;10.25;;;24.20;51.80;;;;;;20312;6870;317297;-74
2023/09/11 01:13:21;;;;;;;9.23;8.63;;;24.30;51.80;;;;;;20539;6871;117839;-74
2023/09/11 01:15:50;;;;;;;10.63;9.75;;;24.00;52.30;;;;;;20323;6872;308000;-75
2023/09/11 01:18:29;;;;;;;10.17;9.17;;;23.90;52.50;;;;;;20346;6872;121045;-77
2023/09/11 01:21:21;;;;;;;9.63;8.83;;;23.70;52.80;;;;;;20299;6872;123507;-78
2023/09/11 01:24:13;;;;;;;11.13;10.33;;;23.30;53.30;;;;;;20321;6872;278179;-75
2023/09/11 01:26:48;;;;;;;9.53;8.93;;;23.40;53.10;;;;;;20498;6872;117996;-75
2023/09/11 01:29:24;;;;;;;10.87;10.17;;;23.20;53.40;;;;;;20332;6872;309441;-74
2023/09/11 01:31:50;;;;;;;9.93;9.10;;;23.30;53.40;;;;;;20553;6872;117655;-75
2023/09/11 01:34:15;;;;;;;9.77;9.07;;;23.20;53.70;;;;;;20541;6872;118295;-74
2023/09/11 01:36:41;;;;;;;11.75;10.25;;;22.90;54.10;;;;;;20338;6872;323514;-73
2023/09/11 01:39:07;;;;;;;9.83;9.17;;;23.00;54.20;;;;;;20558;6872;117572;-74
2023/09/11 01:41:37;;;;;;;11.00;10.20;;;22.90;54.10;;;;;;20345;6872;315774;-75
2023/09/11 01:44:19;;;;;;;11.67;10.77;;;23.10;54.10;;;;;;20319;6872;308873;-75
2023/09/11 01:46:44;;;;;;;10.20;9.50;;;23.30;53.60;;;;;;20554;6872;118188;-75
2023/09/11 01:49:10;;;;;;;11.33;10.30;;;23.20;53.80;;;;;;20336;6872;308123;-74
2023/09/11 01:51:36;;;;;;;11.60;10.77;;;23.20;53.80;;;;;;20339;6872;308684;-74
2023/09/11 01:54:01;;;;;;;10.93;9.93;;;23.40;53.10;;;;;;20528;6872;122723;-75
2023/09/11 01:56:27;;;;;;;11.25;10.43;;;23.30;53.40;;;;;;20336;6872;281966;-74
2023/09/11 01:58:52;;;;;;;11.43;10.53;;;23.30;53.60;;;;;;20331;6872;321761;-75
2023/09/11 02:01:19;;;;;;;11.45;10.55;;;23.50;53.20;;;;;;20326;6872;282490;-74
2023/09/11 02:03:45;;;;;;;10.88;10.18;;;23.60;52.70;;;;;;20328;6872;355633;-74
2023/09/11 02:06:11;;;;;;;10.87;10.03;;;23.40;53.10;;;;;;20538;6872;192781;-74
2023/09/11 02:08:37;;;;;;;10.03;9.13;;;23.40;53.10;;;;;;20555;6872;117671;-74
2023/09/11 02:11:02;;;;;;;10.10;9.30;;;23.00;53.80;;;;;;20559;6872;118653;-74
2023/09/11 02:13:28;;;;;;;11.35;10.55;;;22.70;54.40;;;;;;20351;6872;286537;-74
2023/09/11 02:15:54;;;;;;;10.17;9.37;;;22.80;54.30;;;;;;20531;6872;127569;-74
2023/09/11 02:18:20;;;;;;;10.00;9.40;;;22.40;54.90;;;;;;20557;6872;118268;-75
2023/09/11 02:20:47;;;;;;;10.27;9.43;;;22.40;54.90;;;;;;20562;6870;117489;-74
2023/09/11 02:23:11;;;;;;;11.55;10.55;;;22.20;55.30;;;;;;20353;6871;278910;-74
2023/09/11 02:25:37;;;;;;;11.38;10.57;;;22.40;55.00;;;;;;20352;6871;278738;-74
2023/09/11 02:28:02;;;;;;;9.70;9.00;;;22.70;54.60;;;;;;20525;6872;118301;-74
2023/09/11 02:30:28;;;;;;;10.00;9.30;;;22.70;54.60;;;;;;20551;6872;117439;-74
2023/09/11 02:32:55;;;;;;;10.37;9.40;;;22.20;55.20;;;;;;20558;6872;117884;-74
2023/09/11 02:35:20;;;;;;;11.32;10.45;;;22.20;55.10;;;;;;20342;6872;337827;-74
2023/09/11 02:37:45;;;;;;;10.43;9.63;;;22.40;55.10;;;;;;20551;6872;122064;-74
2023/09/11 02:40:11;;;;;;;10.50;9.70;;;22.30;55.00;;;;;;20540;6872;118255;-74
2023/09/11 02:42:37;;;;;;;10.50;9.70;;;22.10;55.30;;;;;;20545;6872;117630;-73
2023/09/11 02:45:02;;;;;;;10.93;10.03;;;21.90;55.70;;;;;;20549;6872;117478;-74
2023/09/11 02:47:28;;;;;;;11.27;10.55;;;21.80;55.90;;;;;;20326;6872;318113;-73
2023/09/11 02:49:53;;;;;;;10.30;9.60;;;22.00;55.70;;;;;;20528;6872;118006;-74
2023/09/11 02:52:19;;;;;;;11.60;10.80;;;22.00;55.50;;;;;;20337;6872;278717;-74
2023/09/11 02:54:46;;;;;;;11.02;10.32;;;22.30;55.30;;;;;;20338;6872;345826;-74
2023/09/11 02:57:11;;;;;;;11.80;10.13;;;22.60;54.70;;;;;;20550;6872;118396;-74
2023/09/11 02:59:38;;;;;;;10.33;9.63;;;22.40;54.70;;;;;;20547;6872;118408;-74
2023/09/11 03:02:04;;;;;;;11.97;10.87;;;22.20;55.20;;;;;;20309;6872;316867;-75
2023/09/11 03:04:29;;;;;;;11.02;10.23;;;22.30;55.00;;;;;;20328;6872;278314;-78
2023/09/11 03:06:55;;;;;;;10.57;9.60;;;22.50;55.00;;;;;;20560;6872;117979;-73
2023/09/11 03:09:20;;;;;;;10.13;9.23;;;22.40;55.00;;;;;;20558;6872;117430;-77
2023/09/11 03:11:46;;;;;;;9.30;8.70;;;22.20;55.50;;;;;;20559;6872;117538;-78
2023/09/11 03:14:13;;;;;;;10.43;9.63;;;21.90;55.70;;;;;;20527;6872;122185;-73
2023/09/11 03:16:37;;;;;;;11.85;10.85;;;21.70;55.90;;;;;;20319;6872;311903;-76
2023/09/11 03:19:03;;;;;;;11.65;10.88;;;21.80;55.50;;;;;;20326;6872;335866;-75
2023/09/11 03:21:29;;;;;;;10.60;9.90;;;22.10;55.40;;;;;;20538;6872;122995;-74
2023/09/11 03:23:55;;;;;;;11.40;10.60;;;22.00;55.30;;;;;;20303;6872;337813;-73
2023/09/11 03:26:20;;;;;;;10.43;9.80;;;22.20;55.20;;;;;;20543;6872;118294;-74
2023/09/11 03:28:47;;;;;;;12.23;11.18;;;22.00;55.20;;;;;;20343;6872;316748;-74
2023/09/11 03:31:11;;;;;;;10.53;9.67;;;22.10;54.90;;;;;;20543;6872;118912;-74
2023/09/11 03:33:37;;;;;;;10.68;9.70;;;22.00;55.20;;;;;;20548;6870;117930;-73
2023/09/11 03:36:03;;;;;;;11.17;10.47;;;21.70;55.70;;;;;;20529;6871;117612;-73
2023/09/11 03:38:28;;;;;;;11.60;10.80;;;21.50;56.20;;;;;;20340;6871;279271;-73
2023/09/11 03:40:55;;;;;;;12.02;10.95;;;21.60;56.20;;;;;;20357;6872;281281;-74
2023/09/11 03:43:19;;;;;;;12.05;11.10;;;22.00;55.20;;;;;;20362;6872;307699;-75
2023/09/11 03:45:45;;;;;;;12.33;11.23;;;22.20;54.70;;;;;;20351;6872;309212;-74
2023/09/11 03:48:12;;;;;;;11.65;10.95;;;22.40;54.30;;;;;;20316;6872;308526;-74
2023/09/11 03:50:38;;;;;;;11.73;10.93;;;22.50;54.10;;;;;;20335;6872;338192;-74
2023/09/11 03:53:03;;;;;;;10.37;9.67;;;22.60;54.10;;;;;;20545;6872;117645;-74
2023/09/11 03:55:29;;;;;;;11.00;10.30;;;22.40;54.30;;;;;;20333;6872;308206;-73
2023/09/11 03:57:54;;;;;;;10.77;10.07;;;22.30;53.80;;;;;;20528;6872;118161;-75
2023/09/11 04:00:23;;;;;;;10.60;9.70;;;22.10;54.30;;;;;;20541;6872;118188;-76
2023/09/11 04:02:49;;;;;;;10.50;9.60;;;21.80;55.00;;;;;;20558;6872;117455;-75
2023/09/11 04:05:14;;;;;;;10.67;9.70;;;21.60;55.60;;;;;;20556;6872;126480;-74
2023/09/11 04:07:40;;;;;;;13.82;12.82;;;21.40;56.00;;;;;;20348;6872;322907;-73
2023/09/11 04:10:07;;;;;;;11.40;10.60;;;21.70;56.20;;;;;;20539;6872;118561;-75
2023/09/11 04:12:32;;;;;;;11.30;10.60;;;21.70;55.90;;;;;;20340;6872;338550;-73
2023/09/11 04:14:58;;;;;;;10.87;10.00;;;22.00;55.70;;;;;;20547;6872;118209;-73
2023/09/11 04:17:24;;;;;;;11.20;10.50;;;22.00;55.70;;;;;;20338;6872;278267;-74
2023/09/11 04:19:50;;;;;;;11.93;11.03;;;22.50;54.50;;;;;;20340;6872;308674;-75
2023/09/11 04:22:16;;;;;;;11.57;10.77;;;22.70;53.90;;;;;;20314;6872;309039;-75
2023/09/11 04:24:42;;;;;;;10.33;9.40;;;22.70;53.90;;;;;;20547;6872;117948;-74
2023/09/11 04:27:07;;;;;;;11.10;10.20;;;22.50;54.20;;;;;;20338;6872;286802;-73
2023/09/11 04:29:33;;;;;;;11.17;10.40;;;22.50;54.40;;;;;;20544;6872;122456;-75
2023/09/11 04:31:59;;;;;;;10.30;9.50;;;22.30;54.40;;;;;;20537;6872;119066;-75
2023/09/11 04:34:24;;;;;;;11.05;10.38;;;22.10;55.00;;;;;;20340;6872;316695;-72
2023/09/11 04:36:50;;;;;;;10.32;9.73;;;22.20;54.90;;;;;;20325;6872;339987;-75
2023/09/11 04:39:15;;;;;;;11.02;10.32;;;22.50;54.60;;;;;;20318;6872;316868;-75
2023/09/11 04:41:41;;;;;;;9.93;9.23;;;22.70;54.00;;;;;;20528;6872;118231;-74
2023/09/11 04:44:08;;;;;;;11.68;10.73;;;22.60;54.30;;;;;;20310;6871;290781;-75
2023/09/11 04:46:34;;;;;;;10.43;9.73;;;22.60;53.80;;;;;;20550;6871;120609;-74
2023/09/11 04:48:59;;;;;;;10.20;9.43;;;22.50;54.20;;;;;;20559;6871;123249;-75
2023/09/11 04:51:25;;;;;;;11.05;10.35;;;22.20;54.60;;;;;;20348;6872;278461;-75
2023/09/11 04:53:50;;;;;;;10.37;9.57;;;22.30;54.40;;;;;;20557;6872;117516;-74
2023/09/11 04:56:17;;;;;;;11.20;10.30;;;22.30;53.90;;;;;;20329;6872;282211;-78
2023/09/11 04:58:42;;;;;;;12.27;11.23;;;22.40;54.00;;;;;;20346;6872;308982;-74
2023/09/11 05:01:08;;;;;;;12.35;11.32;;;22.60;53.50;;;;;;20320;6872;308301;-76
2023/09/11 05:03:33;;;;;;;11.53;10.53;;;22.70;53.20;;;;;;20548;6872;117609;-76
2023/09/11 05:05:59;;;;;;;10.53;9.93;;;22.50;53.60;;;;;;20522;6872;117817;-76
2023/09/11 05:08:25;;;;;;;10.50;9.53;;;22.00;54.20;;;;;;20554;6872;118360;-76
2023/09/11 05:10:50;;;;;;;12.30;11.50;;;21.70;54.90;;;;;;20325;6872;307747;-76
2023/09/11 05:13:16;;;;;;;10.77;9.77;;;21.80;54.60;;;;;;20526;6872;118044;-74
2023/09/11 05:15:41;;;;;;;10.87;9.97;;;21.70;54.90;;;;;;20432;6872;117878;-75
2023/09/11 05:18:07;;;;;;;11.60;10.80;;;21.40;55.40;;;;;;20199;6872;293208;-75
2023/09/11 05:20:33;;;;;;;11.17;10.20;;;21.60;55.20;;;;;;20526;6872;121616;-76
2023/09/11 05:22:59;;;;;;;12.82;11.73;;;21.60;55.40;;;;;;20278;6872;279163;-75
2023/09/11 05:25:25;;;;;;;11.85;11.05;;;21.70;55.20;;;;;;20299;6872;313636;-76
2023/09/11 05:27:51;;;;;;;11.17;10.30;;;21.90;54.90;;;;;;20529;6872;117702;-76
2023/09/11 05:30:18;;;;;;;11.07;10.17;;;21.60;55.20;;;;;;20550;6872;122767;-77
2023/09/11 05:32:47;;;;;;;10.47;9.53;;;21.60;55.20;;;;;;20563;6872;116784;-76
2023/09/11 05:35:09;;;;;;;10.43;9.53;;;21.40;55.60;;;;;;20535;6872;119625;-75
2023/09/11 05:37:35;;;;;;;11.40;10.60;;;21.30;56.10;;;;;;20345;6872;309034;-76
2023/09/11 05:40:02;;;;;;;10.80;9.97;;;21.60;56.00;;;;;;20537;6872;141883;-78
2023/09/11 05:42:26;;;;;;;9.77;9.17;;;21.60;55.60;;;;;;20533;6872;117214;-75
2023/09/11 05:44:52;;;;;;;9.77;9.00;;;21.50;55.80;;;;;;20548;6872;124569;-76
2023/09/11 05:47:19;;;;;;;11.32;10.52;;;21.30;56.00;;;;;;20340;6872;279266;-77
2023/09/11 05:49:46;;;;;;;12.00;11.00;;;21.50;55.60;;;;;;20323;6872;347401;-76
2023/09/11 05:52:11;;;;;;;10.97;10.17;;;21.90;55.00;;;;;;20512;6872;117822;-74
2023/09/11 05:54:37;;;;;;;11.40;10.50;;;21.80;55.20;;;;;;20347;6872;315006;-76
2023/09/11 05:57:02;;;;;;;10.50;9.70;;;21.90;55.00;;;;;;20563;6870;117573;-76
2023/09/11 05:59:28;;;;;;;12.10;11.13;;;21.90;55.40;;;;;;20368;6871;308351;-78
2023/09/11 06:01:53;;;;;;;10.50;9.65;;;22.10;55.20;;;;;;20568;6871;118378;-76
2023/09/11 06:04:19;;;;;;;11.57;10.47;;;22.20;55.50;;;;;;20360;6872;306856;-79
2023/09/11 06:06:45;;;;;;;10.37;9.43;;;22.60;54.60;;;;;;20564;6872;117173;-77
2023/09/11 06:09:10;;;;;;;11.57;10.55;;;22.80;55.00;;;;;;20383;6872;307612;-74
2023/09/11 06:11:36;;;;;;;10.13;9.33;;;23.10;53.60;;;;;;20609;6872;123351;-75
2023/09/11 06:14:01;;;;;;;10.20;9.40;;;23.30;54.00;;;;;;20552;6872;117576;-78
2023/09/11 06:16:27;;;;;;;11.03;9.23;;;23.20;54.10;;;;;;20548;6872;118541;-77
2023/09/11 06:18:53;;;;;;;9.93;9.13;;;23.20;54.20;;;;;;20555;6872;117831;-76
2023/09/11 06:21:19;;;;;;;10.53;9.43;;;23.10;54.30;;;;;;20555;6872;117979;-77
2023/09/11 06:23:46;;;;;;;11.23;10.23;;;23.00;54.30;;;;;;20350;6872;278806;-74
2023/09/11 06:26:12;;;;;;;9.77;9.17;;;23.30;52.90;;;;;;20533;6872;119109;-75
2023/09/11 06:28:38;;;;;;;11.12;10.30;;;23.40;53.00;;;;;;20351;6872;345865;-75
2023/09/11 06:31:04;;;;;;;10.40;9.40;;;23.60;52.40;;;;;;20563;6872;121603;-75
2023/09/11 06:33:29;;;;;;;13.20;10.30;;;23.60;52.60;;;;;;20550;6872;121580;-76
2023/09/11 06:35:55;;;;;;;10.30;9.47;;;23.50;53.00;;;;;;20541;6872;117838;-74
2023/09/11 06:38:22;;;;;;;9.90;9.00;;;23.30;53.20;;;;;;20529;6872;117676;-75
2023/09/11 06:40:47;;;;;;;11.27;9.10;;;23.30;53.60;;;;;;20555;6872;120375;-75
2023/09/11 06:43:14;;;;;;;12.27;10.48;;;23.20;53.70;;;;;;20359;6872;319437;-74
2023/09/11 06:45:38;;;;;;;11.50;10.40;;;23.50;52.80;;;;;;20542;6872;117839;-77
2023/09/11 06:48:04;;;;;;;11.07;10.27;;;23.70;52.90;;;;;;20311;6872;308162;-76
2023/09/11 06:50:30;;;;;;;9.50;8.63;;;24.00;52.00;;;;;;20538;6872;117906;-76
2023/09/11 06:52:55;;;;;;;10.33;9.17;;;24.10;52.20;;;;;;20544;6872;120301;-77
2023/09/11 06:55:21;;;;;;;9.63;8.80;;;24.00;52.50;;;;;;20538;6872;123289;-78
2023/09/11 06:57:55;;;;;;;9.33;8.73;;;24.00;52.80;;;;;;20554;6872;121812;-77
2023/09/11 07:00:20;;;;;;;10.70;9.68;;;24.10;53.00;;;;;;20335;6872;282740;-77
2023/09/11 07:02:45;;;;;;;9.43;8.60;;;24.50;51.70;;;;;;20550;6872;117514;-76
2023/09/11 07:05:11;;;;;;;10.23;9.43;;;24.70;51.80;;;;;;20337;6872;309353;-76
2023/09/11 07:07:37;;;;;;;10.10;9.23;;;25.00;51.30;;;;;;20546;6870;117495;-75
2023/09/11 07:10:03;;;;;;;11.25;10.15;;;25.40;50.60;;;;;;20324;6871;311700;-76
2023/09/11 07:12:29;;;;;;;11.20;10.40;;;25.80;49.30;;;;;;20348;6871;288264;-76
2023/09/11 07:14:55;;;;;;;9.47;8.77;;;25.70;49.20;;;;;;20561;6872;117774;-76
2023/09/11 07:17:20;;;;;;;10.73;9.63;;;25.80;49.50;;;;;;20547;6872;116947;-77
2023/09/11 07:19:46;;;;;;;10.40;9.40;;;25.60;50.00;;;;;;20554;6872;117507;-77
2023/09/11 07:22:12;;;;;;;11.40;10.25;;;25.50;50.40;;;;;;20319;6872;428358;-76
2023/09/11 07:24:38;;;;;;;8.80;8.15;;;25.80;49.30;;;;;;20357;6872;342357;-76
2023/09/11 07:27:03;;;;;;;10.17;8.97;;;26.30;50.00;;;;;;20539;6872;116841;-77
2023/09/11 07:29:29;;;;;;;10.70;9.10;;;26.50;49.70;;;;;;20560;6872;117027;-76
2023/09/11 07:31:55;;;;;;;9.50;8.70;;;26.60;49.50;;;;;;20311;6872;278205;-76
2023/09/11 07:34:20;;;;;;;9.63;8.73;;;26.90;47.60;;;;;;20543;6872;118734;-76
2023/09/11 07:36:45;;;;;;;9.53;8.80;;;27.00;47.80;;;;;;20330;6872;299339;-76
2023/09/11 07:39:11;;;;;;;9.50;8.68;;;27.40;46.60;;;;;;20339;6872;307322;-77
2023/09/11 07:41:36;;;;;;;9.83;9.03;;;27.90;45.50;;;;;;20541;6872;117254;-77
2023/09/11 07:44:02;;;;;;;9.50;8.85;;;28.00;45.70;;;;;;20532;6872;117396;-76
2023/09/11 07:46:30;;;;;;;9.03;8.17;;;27.90;46.00;;;;;;20541;6872;118381;-80
2023/09/11 07:48:56;;;;;;;9.32;8.65;;;27.80;46.40;;;;;;20350;6872;311366;-78
2023/09/11 07:51:22;;;;;;;8.87;8.17;;;28.20;45.00;;;;;;20570;6872;116622;-79
2023/09/11 07:53:47;;;;;;;8.90;8.30;;;28.40;45.10;;;;;;20363;6872;308898;-81
2023/09/11 07:56:13;;;;;;;9.45;8.65;;;28.90;44.10;;;;;;20331;6872;324651;-78
2023/09/11 07:58:38;;;;;;;8.83;8.20;;;29.40;43.00;;;;;;20557;6872;122094;-81
2023/09/11 08:01:05;;;;;;;8.33;7.87;;;29.60;43.30;;;;;;20558;6872;117288;-80
2023/09/11 08:03:34;;;;;;;8.43;7.83;;;29.50;43.60;;;;;;20592;6872;117924;-80
2023/09/11 08:06:00;;;;;;;9.13;8.52;;;29.40;43.80;;;;;;20342;6872;307479;-80
2023/09/11 08:08:25;;;;;;;8.43;7.80;;;29.80;42.40;;;;;;20373;6872;278148;-80
2023/09/11 08:10:51;;;;;;;8.80;7.40;;;30.30;41.70;;;;;;20579;6872;122516;-79
2023/09/11 08:13:18;;;;;;;8.30;7.70;;;30.50;41.90;;;;;;20580;6872;117382;-80
2023/09/11 08:15:43;;;;;;;8.90;8.20;;;30.50;42.00;;;;;;20366;6872;318517;-79
2023/09/11 08:18:09;;;;;;;7.87;7.27;;;30.70;40.90;;;;;;20552;6872;117561;-79
2023/09/11 08:20:34;;;;;;;8.40;7.53;;;30.80;41.30;;;;;;20576;6870;124192;-82
2023/09/11 08:23:01;;;;;;;8.13;7.30;;;30.80;41.60;;;;;;20581;6871;123504;-81
2023/09/11 08:25:25;;;;;;;8.17;7.57;;;30.80;41.80;;;;;;20559;6872;116168;-77
2023/09/11 08:27:51;;;;;;;8.50;7.80;;;30.70;41.70;;;;;;20361;6872;278978;-81
2023/09/11 08:30:17;;;;;;;7.97;7.35;;;31.00;40.30;;;;;;20319;6872;308932;-78
2023/09/11 08:32:42;;;;;;;8.73;8.07;;;31.50;40.30;;;;;;20575;6872;116748;-81
2023/09/11 08:35:09;;;;;;;7.83;7.33;;;31.60;40.20;;;;;;20555;6872;118204;-76
2023/09/11 08:37:34;;;;;;;8.83;8.03;;;31.50;40.10;;;;;;20550;6872;117675;-78
2023/09/11 08:40:00;;;;;;;8.37;7.87;;;31.30;40.70;;;;;;20530;6872;118595;-77
2023/09/11 08:42:26;;;;;;;8.37;7.80;;;31.40;40.40;;;;;;20548;6872;117342;-76
2023/09/11 08:44:52;;;;;;;8.07;7.47;;;31.30;40.40;;;;;;20333;6872;338582;-76
2023/09/11 08:47:17;;;;;;;8.60;7.93;;;31.60;39.30;;;;;;20552;6872;118071;-76
2023/09/11 08:49:43;;;;;;;8.25;7.72;;;31.80;39.40;;;;;;20326;6872;278539;-76
2023/09/11 08:52:09;;;;;;;8.50;7.80;;;32.50;38.00;;;;;;20311;6872;307679;-77
2023/09/11 08:54:35;;;;;;;8.38;7.70;;;32.90;37.50;;;;;;20319;6872;338557;-74
2023/09/11 08:57:01;;;;;;;8.07;7.57;;;32.80;37.50;;;;;;20331;6872;283484;-73
2023/09/11 08:59:27;;;;;;;7.57;7.07;;;33.10;36.80;;;;;;20328;6872;279457;-75
2023/09/11 09:01:53;;;;;;;8.20;7.65;;;33.30;36.60;;;;;;20331;6872;281110;-76
2023/09/11 09:04:19;;;;;;;8.13;7.43;;;33.50;36.60;;;;;;20342;6872;278923;-76
2023/09/11 09:06:45;;;;;;;8.63;7.73;;;33.70;36.30;;;;;;20340;6872;308529;-79
2023/09/11 09:09:10;;;;;;;7.82;7.22;;;33.80;35.90;;;;;;20336;6872;344669;-75
2023/09/11 09:11:36;;;;;;;7.27;6.87;;;33.90;35.70;;;;;;20552;6872;117664;-76
2023/09/11 09:14:01;;;;;;;7.07;6.57;;;33.70;36.20;;;;;;20512;6872;117642;-76
2023/09/11 09:16:27;;;;;;;7.55;7.03;;;33.40;36.70;;;;;;20321;6872;306670;-75
2023/09/11 09:18:52;;;;;;;7.80;7.13;;;33.50;36.40;;;;;;20542;6872;117957;-76
2023/09/11 09:21:18;;;;;;;7.60;7.00;;;33.50;36.80;;;;;;20546;6872;117278;-75
2023/09/11 09:23:44;;;;;;;8.55;7.47;;;33.30;37.20;;;;;;20539;6872;119038;-76
2023/09/11 09:26:09;;;;;;;7.67;7.07;;;33.10;37.50;;;;;;20536;6872;117898;-75
2023/09/11 09:28:35;;;;;;;8.60;7.30;;;33.10;37.80;;;;;;20551;6872;117511;-75
2023/09/11 09:31:00;;;;;;;7.90;7.22;;;33.00;37.80;;;;;;20306;6870;290162;-78
2023/09/11 09:33:26;;;;;;;7.87;7.17;;;33.30;37.10;;;;;;20566;6871;117511;-76
2023/09/11 09:35:52;;;;;;;7.57;6.70;;;33.30;37.20;;;;;;20557;6871;117732;-75
2023/09/11 09:38:21;;;;;;;8.23;7.60;;;33.20;37.40;;;;;;20348;6872;299538;-76
2023/09/11 09:40:50;;;;;;;9.13;7.20;;;33.50;36.70;;;;;;20324;6872;316733;-76
2023/09/11 09:43:17;;;;;;;8.10;7.40;;;33.90;36.00;;;;;;20336;6872;308573;-75
2023/09/11 09:45:42;;;;;;;7.30;6.70;;;34.20;35.60;;;;;;20541;6872;118761;-75
2023/09/11 09:48:11;;;;;;;7.50;6.80;;;34.20;35.80;;;;;;20313;6872;308328;-76
2023/09/11 09:51:00;;;;;;;7.50;6.87;;;34.40;35.40;;;;;;20333;6872;308581;-75
2023/09/11 09:53:28;;;;;;;7.47;6.80;;;34.60;34.90;;;;;;20330;6872;279024;-76
2023/09/11 09:55:55;;;;;;;7.67;6.83;;;34.70;34.80;;;;;;20494;6872;117310;-76
2023/09/11 09:58:21;;;;;;;7.67;7.07;;;34.60;34.80;;;;;;20531;6872;117807;-78
2023/09/11 10:00:46;;;;;;;8.55;6.70;;;34.40;35.20;;;;;;20320;6872;278548;-75
2023/09/11 10:03:12;;;;;;;6.27;5.73;;;34.50;33.70;;;;;;20543;6872;117880;-76
2023/09/11 10:05:40;;;;;;;7.03;6.27;;;34.50;33.60;;;;;;20543;6872;117249;-76
2023/09/11 10:08:03;;;;;;;7.07;6.47;;;34.30;34.10;;;;;;20500;6872;123981;-76
2023/09/11 10:10:29;;;;;;;9.50;6.10;;;34.10;34.70;;;;;;20465;6872;117919;-77
2023/09/11 10:13:12;;;;;;;7.17;6.47;;;34.10;35.00;;;;;;20333;6872;287255;-77
2023/09/11 10:15:36;;;;;;;7.00;6.45;;;34.30;34.40;;;;;;20321;6872;347209;-78
2023/09/11 10:18:02;;;;;;;6.80;6.20;;;34.80;33.10;;;;;;20313;6872;288069;-77
2023/09/11 10:20:29;;;;;;;7.37;5.97;;;35.10;32.10;;;;;;20535;6872;122519;-77
2023/09/11 10:22:55;;;;;;;7.00;6.37;;;35.10;32.40;;;;;;20552;6872;117361;-78
2023/09/11 10:25:23;;;;;;;7.80;6.22;;;34.80;32.90;;;;;;20337;6872;308111;-75
2023/09/11 10:27:49;;;;;;;7.93;6.40;;;34.90;32.30;;;;;;20332;6872;308528;-75
2023/09/11 10:30:14;;;;;;;8.07;6.35;;;35.20;31.70;;;;;;20301;6872;279503;-74
2023/09/11 10:32:47;;;;;;;8.70;6.03;;;35.50;30.90;;;;;;20283;6872;312294;-74
2023/09/11 10:35:12;;;;;;;6.03;5.53;;;35.50;31.40;;;;;;20534;6872;117794;-73
2023/09/11 10:37:39;;;;;;;11.70;6.10;;;35.10;32.40;;;;;;20545;6872;118633;-74
2023/09/11 10:40:05;;;;;;;6.30;5.57;;;35.10;32.30;;;;;;20541;6872;117994;-75
2023/09/11 10:42:30;;;;;;;6.83;6.23;;;34.80;32.50;;;;;;20342;6870;287666;-74
2023/09/11 10:44:56;;;;;;;7.23;6.03;;;34.80;32.20;;;;;;20545;6871;117265;-74
2023/09/11 10:47:22;;;;;;;9.00;6.00;;;34.80;32.10;;;;;;20556;6871;117155;-74
2023/09/11 10:49:47;;;;;;;6.70;6.07;;;34.70;32.40;;;;;;20342;6872;279345;-73
2023/09/11 10:52:13;;;;;;;6.80;6.30;;;34.80;32.60;;;;;;20537;6872;117383;-73
2023/09/11 10:54:41;;;;;;;6.03;5.50;;;34.70;32.40;;;;;;20555;6872;118496;-73
2023/09/11 10:57:07;;;;;;;6.40;6.00;;;34.80;31.80;;;;;;20336;6872;319593;-74
2023/09/11 10:59:34;;;;;;;6.03;5.53;;;34.80;31.70;;;;;;20552;6872;117312;-75
2023/09/11 11:02:00;;;;;;;6.40;5.97;;;34.70;31.90;;;;;;20531;6872;118839;-74
2023/09/11 11:04:25;;;;;;;6.28;5.75;;;34.50;32.30;;;;;;20332;6872;304585;-74
2023/09/11 11:06:55;;;;;;;6.72;6.12;;;34.60;31.60;;;;;;20338;6872;316830;-74
2023/09/11 11:09:30;;;;;;;6.00;5.57;;;34.80;31.20;;;;;;20538;6872;117377;-73
2023/09/11 11:11:58;;;;;;;6.00;5.60;;;34.80;31.20;;;;;;20527;6872;117823;-74
2023/09/11 11:14:24;;;;;;;6.60;5.83;;;34.60;31.70;;;;;;20332;6872;303141;-74
2023/09/11 11:16:59;;;;;;;6.28;5.78;;;34.70;30.00;;;;;;20340;6872;347114;-75
2023/09/11 11:19:24;;;;;;;5.87;5.37;;;35.00;30.00;;;;;;20547;6872;117332;-73
2023/09/11 11:21:50;;;;;;;6.07;5.57;;;35.00;30.00;;;;;;20532;6872;117778;-74
2023/09/11 11:24:16;;;;;;;6.60;5.43;;;34.80;30.40;;;;;;20527;6872;124281;-74
2023/09/11 11:26:41;;;;;;;6.43;5.82;;;34.60;30.80;;;;;;20319;6872;278884;-72
2023/09/11 11:29:08;;;;;;;7.23;5.77;;;34.80;30.60;;;;;;20532;6872;117692;-74
2023/09/11 11:31:34;;;;;;;6.73;5.63;;;34.80;30.60;;;;;;20345;6872;308098;-74
2023/09/11 11:34:00;;;;;;;7.53;5.93;;;35.00;29.90;;;;;;20527;6872;117383;-74
2023/09/11 11:36:26;;;;;;;8.10;5.90;;;35.00;29.80;;;;;;20328;6872;307699;-74
2023/09/11 11:38:52;;;;;;;6.70;6.10;;;35.00;29.30;;;;;;20329;6872;353486;-74
2023/09/11 11:41:18;;;;;;;11.97;5.87;;;35.00;29.60;;;;;;20539;6872;119282;-74
2023/09/11 11:43:43;;;;;;;6.90;5.60;;;35.00;29.60;;;;;;20553;6872;118707;-75
2023/09/11 11:46:09;;;;;;;9.18;5.93;;;34.70;29.90;;;;;;20311;6872;279016;-75
2023/09/11 11:48:37;;;;;;;9.77;5.70;;;34.80;29.60;;;;;;20547;6872;123319;-74
2023/09/11 11:51:00;;;;;;;7.50;5.70;;;34.70;30.20;;;;;;20322;6872;309009;-74
2023/09/11 11:53:26;;;;;;;6.20;5.70;;;34.80;29.40;;;;;;20544;6870;117391;-75
2023/09/11 11:55:52;;;;;;;7.60;5.40;;;34.80;29.60;;;;;;20557;6871;121170;-75
2023/09/11 11:58:17;;;;;;;6.87;5.17;;;34.70;30.00;;;;;;20526;6871;125244;-73
2023/09/11 12:00:59;;;;;;;7.03;5.70;;;34.50;30.00;;;;;;20563;6872;117709;-74
2023/09/11 12:03:26;;;;;;;8.60;5.60;;;34.60;29.90;;;;;;20347;6872;287177;-74
2023/09/11 12:05:51;;;;;;;8.53;6.00;;;34.60;30.00;;;;;;20302;6872;326236;-74
2023/09/11 12:08:17;;;;;;;7.43;5.75;;;34.90;29.80;;;;;;20322;6872;286683;-73
2023/09/11 12:10:48;;;;;;;5.93;5.43;;;35.10;29.00;;;;;;20539;6872;118560;-74
2023/09/11 12:13:17;;;;;;;8.60;5.43;;;35.10;29.40;;;;;;20330;6872;279040;-74
2023/09/11 12:15:43;;;;;;;9.33;5.60;;;35.10;28.50;;;;;;20307;6872;316708;-74
2023/09/11 12:18:09;;;;;;;6.53;4.97;;;35.30;28.10;;;;;;20507;6872;117917;-74
2023/09/11 12:20:34;;;;;;;9.43;5.67;;;35.10;28.60;;;;;;20537;6872;117876;-74
2023/09/11 12:23:00;;;;;;;9.40;5.10;;;35.00;28.70;;;;;;20349;6872;308540;-73
2023/09/11 12:25:25;;;;;;;8.43;5.07;;;34.90;28.50;;;;;;20569;6872;119347;-72